createdAt,value
2022-10-25T00:02:23.828Z,2.80
2022-10-25T00:04:51.395Z,3.28
2022-10-25T00:07:18.855Z,3.90
2022-10-25T00:09:46.138Z,3.67
2022-10-25T00:12:14.203Z,3.75
2022-10-25T00:14:41.460Z,4.18
2022-10-25T00:17:09.388Z,3.45
2022-10-25T00:19:36.783Z,3.30
2022-10-25T00:22:04.033Z,4.13
2022-10-25T00:24:31.391Z,4.15
2022-10-25T00:26:59.465Z,4.00
2022-10-25T00:29:26.915Z,4.40
2022-10-25T00:31:54.257Z,5.30
2022-10-25T00:34:22.552Z,4.15
2022-10-25T00:36:49.890Z,4.72
2022-10-25T00:39:17.296Z,4.72
2022-10-25T00:41:44.660Z,3.90
2022-10-25T00:44:36.851Z,4.05
2022-10-25T00:47:44.871Z,3.83
2022-10-25T00:50:52.211Z,4.15
2022-10-25T00:53:34.805Z,4.53
2022-10-25T00:56:21.863Z,3.65
2022-10-25T00:58:58.564Z,3.55
2022-10-25T01:01:26.492Z,3.38
2022-10-25T01:04:01.238Z,3.33
2022-10-25T01:07:02.346Z,3.10
2022-10-25T01:09:36.157Z,3.40
2022-10-25T01:12:04.324Z,3.55
2022-10-25T01:14:34.972Z,3.33
2022-10-25T01:21:07.338Z,3.70
2022-10-25T01:23:52.547Z,3.30
2022-10-25T01:27:18.840Z,3.65
2022-10-25T01:30:31.319Z,3.17
2022-10-25T01:33:40.305Z,3.20
2022-10-25T01:37:18.611Z,4.20
2022-10-25T01:40:42.448Z,3.95
2022-10-25T01:44:02.814Z,4.07
2022-10-25T01:46:47.249Z,3.90
2022-10-25T01:49:56.612Z,4.10
2022-10-25T01:52:25.594Z,4.30
2022-10-25T01:54:52.960Z,5.28
2022-10-25T01:57:49.537Z,4.47
2022-10-25T02:00:23.591Z,4.60
2022-10-25T02:03:33.903Z,4.75
2022-10-25T02:06:57.717Z,6.38
2022-10-25T02:10:01.185Z,5.05
2022-10-25T02:13:07.523Z,5.18
2022-10-25T02:16:04.738Z,5.47
2022-10-25T02:18:41.361Z,5.25
2022-10-25T02:21:12.533Z,5.55
2022-10-25T02:23:40.993Z,5.97
2022-10-25T02:26:10.946Z,5.35
2022-10-25T02:28:42.115Z,6.10
2022-10-25T02:31:17.400Z,5.60
2022-10-25T02:33:47.684Z,6.15
2022-10-25T02:36:24.144Z,6.05
2022-10-25T02:38:53.532Z,5.78
2022-10-25T02:41:22.921Z,5.82
2022-10-25T02:43:50.208Z,4.53
2022-10-25T02:46:23.041Z,5.28
2022-10-25T02:48:51.892Z,4.88
2022-10-25T02:51:19.570Z,4.40
2022-10-25T02:53:48.344Z,5.40
2022-10-25T02:56:22.699Z,4.55
2022-10-25T02:58:55.333Z,4.95
2022-10-25T03:01:23.358Z,4.63
2022-10-25T03:03:51.219Z,4.20
2022-10-25T03:06:18.729Z,5.45
2022-10-25T03:08:46.366Z,5.65
2022-10-25T03:11:16.931Z,5.07
2022-10-25T03:13:50.099Z,5.60
2022-10-25T03:16:17.376Z,5.22
2022-10-25T03:18:44.772Z,7.22
2022-10-25T03:21:12.836Z,6.22
2022-10-25T03:23:40.097Z,6.95
2022-10-25T03:26:07.424Z,6.25
2022-10-25T03:28:34.710Z,6.22
2022-10-25T03:31:02.034Z,6.35
2022-10-25T03:36:17.694Z,7.57
2022-10-25T03:38:45.143Z,8.73
2022-10-25T03:41:12.531Z,8.00
2022-10-25T03:43:39.861Z,9.35
2022-10-25T03:46:07.483Z,9.68
2022-10-25T03:48:34.979Z,9.25
2022-10-25T03:51:02.224Z,10.68
2022-10-25T03:53:29.512Z,10.85
2022-10-25T03:55:56.827Z,10.93
2022-10-25T03:58:24.111Z,10.27
2022-10-25T04:00:51.462Z,10.25
2022-10-25T04:03:18.764Z,9.52
2022-10-25T04:05:46.024Z,9.30
2022-10-25T04:08:13.404Z,9.30
2022-10-25T04:10:40.701Z,11.25
2022-10-25T04:13:08.084Z,10.63
2022-10-25T04:15:37.108Z,10.88
2022-10-25T04:18:04.474Z,12.45
2022-10-25T04:20:33.070Z,11.95
2022-10-25T04:23:00.381Z,12.07
2022-10-25T04:25:29.099Z,12.18
2022-10-25T04:28:00.430Z,10.80
2022-10-25T04:30:27.758Z,11.48
2022-10-25T04:32:56.553Z,12.35
2022-10-25T04:35:24.969Z,12.52
2022-10-25T04:37:52.873Z,11.20
2022-10-25T04:40:23.952Z,12.73
2022-10-25T04:42:52.226Z,12.13
2022-10-25T04:45:19.584Z,12.18
2022-10-25T04:47:47.009Z,13.82
2022-10-25T04:50:14.438Z,12.52
2022-10-25T04:52:41.735Z,11.05
2022-10-25T04:55:09.437Z,11.48
2022-10-25T04:57:36.780Z,11.65
2022-10-25T05:00:05.448Z,11.40
2022-10-25T05:02:32.788Z,11.05
2022-10-25T05:05:00.127Z,9.18
2022-10-25T05:07:27.424Z,10.35
2022-10-25T05:09:54.952Z,10.23
2022-10-25T05:12:23.912Z,10.07
2022-10-25T05:14:51.170Z,11.57
2022-10-25T05:17:20.337Z,11.85
2022-10-25T05:19:47.612Z,11.38
2022-10-25T05:22:15.019Z,11.15
2022-10-25T05:24:42.288Z,11.40
2022-10-25T05:27:09.575Z,11.10
2022-10-25T05:29:36.881Z,12.27
2022-10-25T05:32:04.247Z,12.43
2022-10-25T05:34:31.508Z,11.65
2022-10-25T05:36:59.008Z,13.55
2022-10-25T05:39:26.611Z,12.60
2022-10-25T05:41:54.733Z,11.75
2022-10-25T05:44:22.100Z,13.77
2022-10-25T05:46:49.482Z,14.60
2022-10-25T05:49:17.581Z,16.15
2022-10-25T05:51:44.848Z,15.63
2022-10-25T05:54:15.937Z,14.57
2022-10-25T05:56:43.785Z,15.05
2022-10-25T05:59:15.084Z,15.77
2022-10-25T06:01:46.585Z,15.50
2022-10-25T06:04:15.698Z,15.63
2022-10-25T06:06:46.877Z,15.20
2022-10-25T06:09:14.853Z,15.32
2022-10-25T06:11:42.152Z,16.00
2022-10-25T06:14:11.158Z,15.23
2022-10-25T06:16:39.040Z,14.48
2022-10-25T06:19:10.020Z,14.90
2022-10-25T06:21:37.668Z,15.25
2022-10-25T06:24:05.501Z,14.82
2022-10-25T06:26:33.059Z,14.60
2022-10-25T06:29:05.996Z,13.63
2022-10-25T06:31:33.940Z,13.90
2022-10-25T06:34:02.917Z,13.90
2022-10-25T06:36:31.783Z,13.70
2022-10-25T06:39:05.608Z,14.35
2022-10-25T06:41:37.138Z,13.63
2022-10-25T06:44:07.134Z,14.40
2022-10-25T06:49:27.297Z,13.32
2022-10-25T06:51:55.556Z,12.27
2022-10-25T06:54:22.895Z,12.27
2022-10-25T06:56:50.181Z,12.00
2022-10-25T06:59:17.937Z,11.88
2022-10-25T07:01:45.311Z,11.63
2022-10-25T07:04:13.206Z,11.20
2022-10-25T07:06:41.279Z,11.50
2022-10-25T07:09:10.202Z,10.65
2022-10-25T07:11:38.240Z,10.00
2022-10-25T07:14:09.483Z,9.40
2022-10-25T07:16:39.856Z,9.15
2022-10-25T07:19:10.086Z,8.80
2022-10-25T07:21:45.108Z,9.43
2022-10-25T07:24:13.425Z,9.93
2022-10-25T07:26:40.795Z,10.52
2022-10-25T07:29:08.403Z,9.80
2022-10-25T07:31:43.084Z,9.27
2022-10-25T07:34:15.220Z,9.80
2022-10-25T07:36:43.636Z,9.23
2022-10-25T07:39:10.948Z,8.65
2022-10-25T07:41:38.300Z,9.43
2022-10-25T07:44:05.748Z,8.85
2022-10-25T07:46:33.002Z,9.32
2022-10-25T07:49:00.289Z,8.68
2022-10-25T07:51:27.571Z,9.43
2022-10-25T07:53:54.877Z,7.85
2022-10-25T07:56:35.347Z,8.63
2022-10-25T07:59:08.649Z,7.90
2022-10-25T08:01:49.858Z,8.30
2022-10-25T08:04:41.774Z,7.10
2022-10-25T08:07:25.040Z,7.85
2022-10-25T08:10:01.240Z,8.27
2022-10-25T08:12:44.774Z,7.45
2022-10-25T08:15:26.355Z,6.13
2022-10-25T08:18:19.584Z,7.10
2022-10-25T08:21:27.494Z,7.45
2022-10-25T08:24:17.100Z,6.32
2022-10-25T08:27:02.611Z,6.13
2022-10-25T08:29:40.999Z,6.40
2022-10-25T08:35:32.127Z,6.57
2022-10-25T08:38:26.775Z,6.40
2022-10-25T08:41:33.217Z,5.57
2022-10-25T08:44:54.274Z,5.30
2022-10-25T08:47:52.802Z,5.32
2022-10-25T08:50:47.685Z,5.45
2022-10-25T08:53:36.818Z,5.95
2022-10-25T08:56:16.054Z,5.38
2022-10-25T08:59:02.348Z,4.80
2022-10-25T09:01:49.533Z,4.80
2022-10-25T09:04:17.065Z,4.40
2022-10-25T09:07:28.164Z,4.53
2022-10-25T09:10:30.934Z,4.68
2022-10-25T09:13:40.278Z,4.70
2022-10-25T09:17:01.723Z,3.70
2022-10-25T09:20:25.834Z,3.55
2022-10-25T09:23:28.300Z,3.35
2022-10-25T09:26:37.781Z,3.80
2022-10-25T09:29:42.805Z,3.85
2022-10-25T09:32:28.460Z,3.88
2022-10-25T09:34:57.906Z,4.13
2022-10-25T09:38:00.029Z,3.72
2022-10-25T09:40:52.973Z,3.22
2022-10-25T09:43:49.079Z,3.50
2022-10-25T09:46:59.975Z,3.67
2022-10-25T09:49:56.773Z,3.30
2022-10-25T09:53:11.705Z,3.60
2022-10-25T09:56:00.271Z,3.10
2022-10-25T09:58:42.852Z,3.30
2022-10-25T10:01:27.833Z,3.55
2022-10-25T10:04:21.569Z,3.35
2022-10-25T10:06:52.115Z,2.85
2022-10-25T10:11:48.768Z,2.58
2022-10-25T10:15:00.856Z,2.60
2022-10-25T10:17:30.972Z,2.70
2022-10-25T10:20:19.139Z,2.00
2022-10-25T10:22:54.056Z,2.58
2022-10-25T10:25:28.792Z,2.40
2022-10-25T10:27:58.996Z,2.28
2022-10-25T10:30:30.935Z,2.40
2022-10-25T10:33:03.249Z,2.35
2022-10-25T10:35:37.916Z,2.75
2022-10-25T10:38:30.205Z,2.67
2022-10-25T10:41:29.312Z,2.63
2022-10-25T10:44:15.151Z,2.30
2022-10-25T10:46:47.465Z,2.40
2022-10-25T10:49:16.129Z,2.20
2022-10-25T10:51:45.730Z,2.70
2022-10-25T10:54:29.836Z,2.47
2022-10-25T10:57:02.861Z,2.75
2022-10-25T10:59:52.860Z,2.15
2022-10-25T11:02:41.832Z,2.75
2022-10-25T11:05:37.862Z,3.00
2022-10-25T11:08:08.049Z,2.67
2022-10-25T11:10:38.287Z,2.60
2022-10-25T11:13:18.675Z,3.17
2022-10-25T11:19:44.005Z,2.63
2022-10-25T11:23:11.034Z,2.30
2022-10-25T11:26:13.171Z,2.00
2022-10-25T11:29:34.756Z,2.28
2022-10-25T11:36:08.235Z,2.08
2022-10-25T11:39:35.340Z,2.97
2022-10-25T11:42:37.012Z,2.15
2022-10-25T11:45:46.931Z,2.40
2022-10-25T11:49:11.785Z,1.98
2022-10-25T11:52:34.326Z,1.98
2022-10-25T11:56:04.462Z,2.05
2022-10-25T11:59:18.501Z,2.40
2022-10-25T12:02:22.278Z,2.13
2022-10-25T12:05:38.698Z,1.88
2022-10-25T12:08:47.033Z,2.05
2022-10-25T12:11:42.064Z,2.10
2022-10-25T12:14:21.822Z,1.95
2022-10-25T12:16:50.105Z,1.63
2022-10-25T12:19:28.036Z,1.80
2022-10-25T12:22:13.539Z,1.67
2022-10-25T12:25:05.240Z,1.73
2022-10-25T12:27:34.710Z,1.55
2022-10-25T12:30:18.824Z,1.90
2022-10-25T12:33:02.592Z,1.83
2022-10-25T12:35:42.684Z,1.80
2022-10-25T12:38:33.033Z,1.88
2022-10-25T12:45:33.047Z,1.70
2022-10-25T12:48:56.350Z,1.67
2022-10-25T12:51:58.200Z,1.85
2022-10-25T12:55:32.275Z,1.40
2022-10-25T12:58:37.680Z,1.77
2022-10-25T13:01:46.234Z,1.83
2022-10-25T13:05:11.629Z,1.42
2022-10-25T13:07:40.958Z,1.50
2022-10-25T13:10:23.886Z,2.17
2022-10-25T13:13:22.080Z,1.70
2022-10-25T13:16:01.381Z,1.83
2022-10-25T13:18:48.100Z,1.50
2022-10-25T13:21:53.297Z,1.75
2022-10-25T13:24:45.504Z,2.22
2022-10-25T13:27:15.592Z,2.45
2022-10-25T13:30:07.551Z,1.65
2022-10-25T13:32:43.763Z,1.95
2022-10-25T13:35:19.953Z,1.27
2022-10-25T13:38:25.676Z,1.70
2022-10-25T13:41:19.362Z,1.67
2022-10-25T13:44:05.189Z,1.40
2022-10-25T13:46:41.973Z,2.15
2022-10-25T13:49:42.603Z,1.50
2022-10-25T13:52:33.431Z,1.48
2022-10-25T13:55:10.139Z,1.50
2022-10-25T13:57:59.238Z,1.50
2022-10-25T14:00:33.013Z,1.35
2022-10-25T14:03:09.850Z,1.25
2022-10-25T14:05:55.759Z,2.33
2022-10-25T14:08:43.576Z,1.40
2022-10-25T14:11:33.176Z,1.95
2022-10-25T14:14:27.221Z,1.90
2022-10-25T14:17:18.741Z,1.38
2022-10-25T14:19:54.831Z,1.23
2022-10-25T14:22:46.427Z,0.95
2022-10-25T14:25:48.765Z,1.40
2022-10-25T14:28:32.034Z,1.50
2022-10-25T14:31:14.043Z,1.10
2022-10-25T14:33:54.058Z,1.20
2022-10-25T14:36:36.744Z,0.95
2022-10-25T14:39:19.974Z,1.20
2022-10-25T14:42:00.528Z,1.60
2022-10-25T14:44:45.977Z,1.27
2022-10-25T14:47:33.850Z,0.98
2022-10-25T14:50:02.510Z,1.20
2022-10-25T14:52:31.652Z,1.45
2022-10-25T14:55:05.724Z,1.08
2022-10-25T14:57:34.651Z,1.10
2022-10-25T15:00:06.325Z,1.20
2022-10-25T15:02:37.768Z,0.90
2022-10-25T15:05:07.200Z,1.20
2022-10-25T15:07:47.123Z,1.10
2022-10-25T15:10:43.508Z,1.13
2022-10-25T15:13:41.800Z,1.20
2022-10-25T15:16:40.977Z,1.50
2022-10-25T15:19:20.751Z,1.73
2022-10-25T15:22:04.917Z,1.20
2022-10-25T15:24:46.708Z,2.25
2022-10-25T15:27:40.293Z,1.65
2022-10-25T15:30:37.037Z,1.92
2022-10-25T15:33:15.571Z,1.92
2022-10-25T15:35:58.722Z,1.73
2022-10-25T15:39:01.834Z,2.00
2022-10-25T15:41:24.833Z,1.83
2022-10-25T15:43:53.017Z,1.70
2022-10-25T15:46:34.343Z,1.85
2022-10-25T15:49:09.019Z,2.08
2022-10-25T15:51:42.689Z,1.98
2022-10-25T15:54:23.727Z,1.63
2022-10-25T15:56:52.013Z,2.22
2022-10-25T15:59:19.304Z,1.55
2022-10-25T16:01:52.326Z,2.10
2022-10-25T16:04:20.324Z,2.00
2022-10-25T16:06:48.093Z,1.88
2022-10-25T16:09:17.282Z,1.80
2022-10-25T16:11:51.626Z,1.70
2022-10-25T16:14:25.323Z,2.20
2022-10-25T16:16:52.807Z,1.98
2022-10-25T16:19:22.007Z,2.33
2022-10-25T16:21:49.597Z,1.83
2022-10-25T16:24:16.881Z,2.42
2022-10-25T16:26:49.300Z,1.90
2022-10-25T16:29:26.367Z,2.15
2022-10-25T16:31:54.276Z,2.45
2022-10-25T16:34:22.005Z,2.15
2022-10-25T16:36:52.798Z,1.90
2022-10-25T16:39:20.112Z,1.95
2022-10-25T16:41:48.347Z,2.67
2022-10-25T16:44:20.306Z,2.20
2022-10-25T16:46:48.048Z,2.20
2022-10-25T16:49:15.320Z,2.65
2022-10-25T16:51:44.233Z,2.33
2022-10-25T16:54:12.709Z,2.47
2022-10-25T16:56:40.016Z,2.17
2022-10-25T16:59:07.876Z,2.45
2022-10-25T17:01:39.016Z,2.45
2022-10-25T17:04:10.406Z,3.00
2022-10-25T17:06:42.190Z,2.50
2022-10-25T17:09:11.248Z,2.35
2022-10-25T17:11:38.624Z,2.40
2022-10-25T17:14:06.497Z,3.13
2022-10-25T17:16:34.558Z,2.95
2022-10-25T17:19:03.904Z,2.33
2022-10-25T17:21:33.230Z,2.58
2022-10-25T17:24:00.641Z,1.92
2022-10-25T17:26:28.397Z,2.30
2022-10-25T17:28:57.615Z,2.45
2022-10-25T17:31:25.274Z,2.13
2022-10-25T17:33:52.539Z,2.00
2022-10-25T17:36:20.963Z,2.40
2022-10-25T17:38:48.485Z,2.83
2022-10-25T17:41:15.841Z,2.42
2022-10-25T17:43:43.253Z,2.25
2022-10-25T17:46:25.500Z,2.58
2022-10-25T17:49:03.712Z,3.35
2022-10-25T17:51:35.200Z,2.22
2022-10-25T17:54:02.661Z,2.33
2022-10-25T17:59:17.243Z,1.90
2022-10-25T18:01:44.692Z,2.00
2022-10-25T18:04:12.008Z,2.75
2022-10-25T18:06:39.645Z,1.88
2022-10-25T18:09:06.952Z,2.28
2022-10-25T18:11:34.234Z,2.03
2022-10-25T18:14:02.175Z,2.63
2022-10-25T18:16:31.124Z,2.00
2022-10-25T18:19:03.908Z,1.70
2022-10-25T18:21:33.324Z,2.05
2022-10-25T18:24:04.969Z,2.40
2022-10-25T18:26:34.836Z,2.63
2022-10-25T18:29:02.323Z,2.28
2022-10-25T18:31:30.663Z,2.17
2022-10-25T18:34:03.435Z,2.72
2022-10-25T18:36:32.633Z,2.58
2022-10-25T18:39:00.447Z,2.75
2022-10-25T18:41:34.089Z,2.60
2022-10-25T18:44:02.928Z,3.05
2022-10-25T18:46:31.890Z,2.83
2022-10-25T18:48:59.512Z,3.15
2022-10-25T18:51:28.957Z,2.42
2022-10-25T18:54:02.721Z,2.73
2022-10-25T18:56:31.000Z,2.80
2022-10-25T18:58:59.164Z,2.80
2022-10-25T19:01:32.130Z,2.75
2022-10-25T19:04:03.544Z,3.45
2022-10-25T19:06:32.772Z,2.75
2022-10-25T19:09:02.859Z,3.35
2022-10-25T19:11:30.539Z,2.75
2022-10-25T19:13:58.067Z,2.55
2022-10-25T19:16:25.660Z,2.67
2022-10-25T19:18:53.219Z,3.17
2022-10-25T19:21:20.513Z,2.90
2022-10-25T19:23:48.260Z,2.80
2022-10-25T19:26:20.687Z,2.30
2022-10-25T19:28:54.320Z,1.98
2022-10-25T19:31:21.653Z,2.15
2022-10-25T19:33:52.673Z,2.15
2022-10-25T19:36:20.679Z,2.83
2022-10-25T19:38:50.669Z,2.50
2022-10-25T19:41:23.471Z,3.20
2022-10-25T19:43:51.733Z,2.78
2022-10-25T19:46:19.644Z,2.67
2022-10-25T19:48:46.983Z,3.22
2022-10-25T19:51:19.797Z,3.38
2022-10-25T19:53:47.647Z,3.45
2022-10-25T19:56:23.722Z,4.20
2022-10-25T19:58:51.689Z,2.95
2022-10-25T20:01:28.615Z,3.83
2022-10-25T20:03:58.316Z,3.75
2022-10-25T20:06:31.566Z,3.77
2022-10-25T20:09:01.878Z,3.45
2022-10-25T20:11:29.758Z,3.47
2022-10-25T20:14:01.017Z,3.75
2022-10-25T20:16:29.643Z,4.05
2022-10-25T20:19:00.872Z,4.05
2022-10-25T20:21:36.823Z,3.38
2022-10-25T20:24:09.252Z,3.28
2022-10-25T20:26:41.243Z,3.35
2022-10-25T20:29:22.817Z,3.40
2022-10-25T20:31:52.398Z,3.30
2022-10-25T20:34:20.852Z,3.58
2022-10-25T20:36:49.050Z,3.78
2022-10-25T20:39:16.714Z,3.10
2022-10-25T20:41:46.735Z,3.20
2022-10-25T20:44:14.729Z,3.30
2022-10-25T20:46:42.275Z,3.35
2022-10-25T20:49:09.532Z,2.95
2022-10-25T20:51:37.980Z,2.83
2022-10-25T20:54:09.384Z,3.22
2022-10-25T20:56:37.358Z,2.95
2022-10-25T20:59:05.295Z,2.83
2022-10-25T21:01:32.696Z,3.22
2022-10-25T21:04:00.155Z,3.10
2022-10-25T21:06:27.433Z,3.20
2022-10-25T21:08:54.701Z,3.00
2022-10-25T21:11:22.048Z,3.13
2022-10-25T21:13:49.358Z,3.38
2022-10-25T21:16:17.355Z,3.33
2022-10-25T21:18:45.475Z,2.88
2022-10-25T21:21:19.813Z,3.42
2022-10-25T21:23:48.127Z,3.35
2022-10-25T21:26:15.780Z,3.30
2022-10-25T21:28:43.443Z,3.30
2022-10-25T21:31:15.539Z,3.33
2022-10-25T21:33:49.899Z,3.70
2022-10-25T21:36:20.557Z,3.42
2022-10-25T21:38:48.184Z,3.42
2022-10-25T21:41:26.787Z,3.33
2022-10-25T21:43:57.553Z,2.70
2022-10-25T21:46:27.713Z,3.20
2022-10-25T21:48:55.185Z,3.38
2022-10-25T21:51:24.455Z,2.80
2022-10-25T21:56:31.432Z,2.65
2022-10-25T21:59:00.236Z,2.90
2022-10-25T22:01:30.787Z,3.30
2022-10-25T22:03:58.428Z,3.05
2022-10-25T22:06:27.401Z,3.35
2022-10-25T22:08:56.309Z,3.22
2022-10-25T22:11:30.587Z,3.30
2022-10-25T22:14:03.449Z,3.42
2022-10-25T22:16:33.005Z,3.95
2022-10-25T22:19:12.283Z,2.80
2022-10-25T22:21:41.099Z,3.15
2022-10-25T22:24:11.764Z,3.08
2022-10-25T22:26:43.107Z,3.30
2022-10-25T22:29:13.803Z,3.13
2022-10-25T22:31:41.598Z,3.20
2022-10-25T22:34:10.726Z,3.00
2022-10-25T22:36:42.264Z,4.20
2022-10-25T22:39:10.161Z,2.83
2022-10-25T22:41:37.584Z,2.67
2022-10-25T22:44:05.966Z,2.95
2022-10-25T22:46:36.337Z,3.55
2022-10-25T22:49:09.248Z,3.35
2022-10-25T22:51:38.715Z,3.28
2022-10-25T22:54:06.339Z,3.67
2022-10-25T22:56:34.589Z,3.00
2022-10-25T22:59:05.544Z,3.60
2022-10-25T23:01:39.197Z,3.13
2022-10-25T23:04:09.602Z,2.90
2022-10-25T23:09:11.052Z,2.75
2022-10-25T23:11:41.267Z,2.75
2022-10-25T23:14:13.411Z,2.55
2022-10-25T23:16:43.912Z,2.60
2022-10-25T23:19:11.209Z,2.58
2022-10-25T23:21:38.471Z,2.50
2022-10-25T23:24:07.212Z,2.88
2022-10-25T23:26:36.679Z,2.53
2022-10-25T23:29:05.025Z,2.50
2022-10-25T23:31:33.030Z,2.90
2022-10-25T23:34:01.874Z,3.03
2022-10-25T23:36:37.780Z,2.78
2022-10-25T23:39:07.717Z,2.38
2022-10-25T23:41:35.004Z,2.75
2022-10-25T23:44:02.454Z,2.35
2022-10-25T23:46:32.498Z,3.05
2022-10-25T23:48:59.760Z,3.00
2022-10-25T23:51:27.017Z,2.83
2022-10-25T23:53:54.264Z,2.78
2022-10-25T23:56:21.536Z,2.47
2022-10-25T23:58:53.395Z,2.28
